W8IJC-7 messages


fromtotime message
WLNK-1 W8IJC-7 08/30 17:56:39z Reply Message sent to: kc8lar@winlink.org{9628
W8IJC-7 WLNK-1 08/30 17:56:39z Send another /EX{62
W8IJC-7 WLNK-1 08/30 17:56:12z Send another Testing.{61
WLNK-1 W8IJC-7 08/30 17:55:34z Reply New message to: kc8lar@winlink.org. Send /EX when complete.{9627
W8IJC-7 WLNK-1 08/30 17:55:34z Send another SP kc8lar@winlink.org Testing{60
WLNK-1 W8IJC-7 08/30 17:54:32z Reply Invalid message request: kc8lar@winlink.org{9626
W8IJC-7 WLNK-1 08/30 17:54:32z Send another sp kc8lar@winlink.org {59
WLNK-1 W8IJC-7 08/30 17:51:04z Reply Send short message: SMS {9625
W8IJC-7 WLNK-1 08/30 17:51:04z Send another ? sms{58
WLNK-1 W8IJC-7 08/30 17:50:19z Reply Unknown request. Send ? for help{9624
W8IJC-7 WLNK-1 08/30 17:50:19z Send another sms ?{57
WLNK-1 W8IJC-7 08/30 17:49:41z Reply Unknown request. Send ? for help{9623
W8IJC-7 WLNK-1 08/30 17:49:41z Send another sms?{55
WLNK-1 W8IJC-7 08/30 17:49:14z Reply SP, SMS, L, R#, K#, Y#, F#, P, G, A, I, PR, B (? + cmd for more){9621
W8IJC-7 WLNK-1 08/30 17:49:14z Send another ?{54
WLNK-1 W8IJC-7 08/30 17:48:54z Reply Hello W8IJC-7. Login valid for ~2 hours{9620
W8IJC-7 WLNK-1 08/30 17:48:53z Send another 375eyb{53
WLNK-1 W8IJC-7 08/30 17:47:33z Reply Login [375]:{9619
W8IJC-7 WLNK-1 08/30 17:47:33z Send another jdp{52
WLNK-1 W8IJC-7 08/30 17:46:05z Reply Not logged in{9618
W8IJC-7 WLNK-1 08/30 17:46:05z Send another b{51
W8IJC-7 AC8YJ-10 08/30 16:32:59z Send another Testing{50
W8IJC-7 AC8YJ-10 08/28 17:48:20z Send another Testing{49
W8IJC-7 AC8YJ-10 08/28 13:58:58z Send another Testing{48
W8IJC-7 W8IJC-10 08/27 19:50:58z Send another PCS LONG RELIABILITY TEST 1/10{45
W8IJC-7 W8IJC-10 08/27 19:49:55z Send another test{46
WXBOT W8IJC-7 08/27 19:46:43z Reply 2 Miles ENE Pierpont OH. Tonight,Partly Cloudy Low 61
W8IJC-7 WXBOT 08/27 19:46:34z Send another today{47
WXBOT W8IJC-7 08/26 22:13:30z Reply 50% Low 62
WXBOT W8IJC-7 08/26 22:13:25z Reply 2 Miles WNW Pierpont OH. Tonight,Mostly Clear then Chance T-storms
W8IJC-7 WXBOT 08/26 22:13:17z Send another today{44
W8IJC-7 WXBOT 08/26 19:42:17z Send another today{43
W8IJC-7 N0BAA-7 08/26 03:41:27z Send another N0BAA DM79N0BAA DM79N0BAA DM79{42
N0BAA-7 W8IJC-7 08/26 02:23:44z Reply N0BAA DM79N0BAA DM79N0BAA DM79{54
N0BAA-7 W8IJC-7 08/26 02:23:43z Reply N0BAA DM79N0BAA DM79N0BAA DM7954
W8IJC-7 N0BAA-7 08/26 02:17:49z Send another RR W8IJC EN91{41
N0BAA-7 W8IJC-7 08/26 02:16:47z Reply N0BAA DM79{53
N0BAA-7 W8IJC-7 08/26 02:16:46z Reply N0BAA DM7953
W8IJC-7 N0BAA-7 08/26 01:42:18z Send another N0BAA de W8IJC{40
W8IJC-7 W8IJC-10 08/26 01:38:59z Send another test{39
WLNK-1 W8IJC-7 08/25 07:51:15z Reply Log off successful{8601
W8IJC-7 WLNK-1 08/25 07:51:14z Send another b{35
WLNK-1 W8IJC-7 08/25 07:50:57z Reply 08/25/2026 07:50:56 No messages{8600
W8IJC-7 WLNK-1 08/25 07:50:56z Send another l{34
WLNK-1 W8IJC-7 08/25 07:50:30z Reply Hello W8IJC-7. Login valid for ~2 hours{8599
W8IJC-7 WLNK-1 08/25 07:50:30z Send another 729yr0{33
WLNK-1 W8IJC-7 08/25 07:49:41z Reply Login [729]:{8598
W8IJC-7 WLNK-1 08/25 07:49:40z Send another e{32
WXBOT W8IJC-7 08/25 07:48:52z Reply 2 Miles WNW Pierpont OH. Overnight,Mostly Cloudy Low 56
W8IJC-7 WXBOT 08/25 07:48:44z Send another today{31
W8IJC-7 W8IJC-10 08/24 04:39:36z Send another test{29
WXBOT W8IJC-7 08/24 04:35:02z Reply ance Showers 30% Low 55
WXBOT W8IJC-7 08/24 04:34:57z Reply 2 Miles WNW Pierpont OH. Hazardous Weather Outlook, Monday Night,Ch
W8IJC-7 WXBOT 08/24 04:34:48z Send another tomorrow{30
W8IJC-7 W8IJC-10 08/24 04:22:35z Send another test{14
W8IJC-7 WLNK-1 08/24 04:21:26z Send another /EX{27
WLNK-1 W8IJC-7 08/24 04:19:03z Reply Log off successful{8432
W8IJC-7 WLNK-1 08/24 04:19:02z Send another b{28
WLNK-1 W8IJC-7 08/24 04:18:35z Reply Message sent to: kc8lar@winlink.org{8431
W8IJC-7 WLNK-1 08/24 04:17:59z Send another T9 dialing is not my thing... Lol. 73 deW8IJC!{26
W8IJC-7 WLNK-1 08/24 04:16:10z Send another Hiya Jeff, testing via PCS APRS channel. Used my FT3DR to TX this.{25
WLNK-1 W8IJC-7 08/24 04:13:32z Reply New message to: kc8lar@winlink.org. Send /EX when complete.{8430
W8IJC-7 WLNK-1 08/24 04:13:31z Send another sp kc8lar@winlink.org Test via PCS APRS{24
WLNK-1 W8IJC-7 08/24 04:11:47z Reply Invalid message request: kc8lar@winlink.org{8429
W8IJC-7 WLNK-1 08/24 04:11:46z Send another sp kc8lar@winlink.org{23
WLNK-1 W8IJC-7 08/24 04:10:26z Reply Send message: SP {8428
WLNK-1 W8IJC-7 08/24 04:10:19z Reply Invalid message request: ?{8427
WLNK-1 W8IJC-7 08/24 04:10:12z Reply SP, SMS, L, R#, K#, Y#, F#, P, G, A, I, PR, B (? + cmd for more){8426
W8IJC-7 WLNK-1 08/24 04:10:08z Send another ?sp{22
WLNK-1 W8IJC-7 08/24 04:09:44z Reply SP, SMS, L, R#, K#, Y#, F#, P, G, A, I, PR, B (? + cmd for more){8425
W8IJC-7 WLNK-1 08/24 04:09:31z Send another sp ?{21
W8IJC-7 WLNK-1 08/24 04:08:58z Send another h{20
W8IJC-7 WLNK-1 08/24 04:08:44z Send another h{19
WLNK-1 W8IJC-7 08/24 04:08:15z Reply Unknown request. Send ? for help{8424
W8IJC-7 WLNK-1 08/24 04:08:15z Send another sp?{18
WLNK-1 W8IJC-7 08/24 04:07:16z Reply SP, SMS, L, R#, K#, Y#, F#, P, G, A, I, PR, B (? + cmd for more){8423
W8IJC-7 WLNK-1 08/24 04:07:16z Send another h{17
WLNK-1 W8IJC-7 08/24 04:06:50z Reply Hello W8IJC-7. Login valid for ~2 hours{8422
W8IJC-7 WLNK-1 08/24 04:06:49z Send another 736yeo{16
WLNK-1 W8IJC-7 08/24 04:05:53z Reply Invalid login challenge response -- 2 attempts remaining{8421
W8IJC-7 WLNK-1 08/24 04:05:52z Send another a{15
WLNK-1 W8IJC-7 08/24 03:50:57z Reply Login [736]:{8420
WLNK-1 W8IJC-7 08/24 02:37:23z Reply Log off successful{8408
W8IJC-7 WLNK-1 08/24 02:37:22z Send another b{13
WLNK-1 W8IJC-7 08/24 02:36:30z Reply ection From: W Wind Gusts: 5 mph | 8.05 km/h Gust Max: 5 mph |{8407
WLNK-1 W8IJC-7 08/24 02:36:23z Reply Three hour trend: Falling Wind Speed: 1 mph | 1.61 km/h Dir{8406
WLNK-1 W8IJC-7 08/24 02:36:15z Reply w Point 62=B0F | 16.7=B0C Barometer 29.73 inHg | 1006.77 millibars{8405
WLNK-1 W8IJC-7 08/24 02:36:08z Reply ions OVERCAST Temperature 67=B0F | 19.4=B0C Humidity 89 %=20 De{8404
WLNK-1 W8IJC-7 08/24 02:36:02z Reply rook Twp County: Ashtabula State: oh =20 Current Condit{8403
WLNK-1 W8IJC-7 08/24 02:35:55z Reply .854167 LON: -80.791667 Location source: Grid square City: Sayb{8402
WLNK-1 W8IJC-7 08/24 02:35:48z Reply 20:22:31 Location: Shepard and US RT20 =20 Coordinates: LAT: 41{8401
WLNK-1 W8IJC-7 08/24 02:35:41z Reply E ** Call sign: KC8LAR Observer Name: Jeff DateTime: 2026-08-22{8400
WLNK-1 W8IJC-7 08/24 02:35:34z Reply :KC8LAR Msg:CURRENT LOCAL WEATHER CONDITIONS ** THIS IS AN EXERCIS{8399
WLNK-1 W8IJC-7 08/24 02:35:27z Reply WX Report Shepard and US RT20, Saybrook Twp, 2026-08-22 20:22:31 Fm{8398
W8IJC-7 WLNK-1 08/24 02:35:26z Send another r1{12
WLNK-1 W8IJC-7 08/24 02:34:42z Reply ection From: W Wind Gusts: 5 mph | 8.05 km/h Gust Max: 5 mph |{8397
WLNK-1 W8IJC-7 08/24 02:34:36z Reply Three hour trend: Falling Wind Speed: 1 mph | 1.61 km/h Dir{8396
WLNK-1 W8IJC-7 08/24 02:34:29z Reply w Point 62=B0F | 16.7=B0C Barometer 29.73 inHg | 1006.77 millibars{8395
WLNK-1 W8IJC-7 08/24 02:34:22z Reply ions OVERCAST Temperature 67=B0F | 19.4=B0C Humidity 89 %=20 De{8394
WLNK-1 W8IJC-7 08/24 02:34:15z Reply rook Twp County: Ashtabula State: oh =20 Current Condit{8393